Time,TemperatureF,DewpointF,PressureIn,WindDirection,WindDirectionDegrees,WindSpeedMPH,WindSpeedGustMPH,Humidity,HourlyPrecipIn,Conditions,Clouds,dailyrainin,SolarRadiationWatts/m^2,SoftwareType,DateUTC
2013-04-26 00:12:00,50.8,46.0,30.14,SSW,199,0.0,-999.0,83,-99.99,,,0.00,0,weatherlink.com 1.10,2013-04-26 07:12:00,
2013-04-26 00:27:00,50.4,46.0,30.14,SSW,199,0.0,-999.0,84,-99.99,,,0.00,0,weatherlink.com 1.10,2013-04-26 07:27:00,
2013-04-26 00:42:00,50.3,46.0,30.14,SSW,199,0.0,-999.0,84,-99.99,,,0.00,0,weatherlink.com 1.10,2013-04-26 07:42:00,
2013-04-26 00:57:00,50.1,46.0,30.15,SSW,199,0.0,-999.0,84,-99.99,,,0.00,0,weatherlink.com 1.10,2013-04-26 07:57:00,
2013-04-26 01:12:00,49.6,45.0,30.15,SSW,199,0.0,-999.0,84,-99.99,,,0.00,0,weatherlink.com 1.10,2013-04-26 08:12:00,
2013-04-26 01:28:00,49.2,45.0,30.15,SSW,199,0.0,-999.0,85,-99.99,,,0.00,0,weatherlink.com 1.10,2013-04-26 08:28:00,
2013-04-26 01:43:00,48.6,44.0,30.15,SSW,199,0.0,-999.0,85,-99.99,,,0.00,0,weatherlink.com 1.10,2013-04-26 08:43:00,
2013-04-26 01:58:00,48.4,44.0,30.15,SSW,199,0.0,-999.0,86,-99.99,,,0.00,0,weatherlink.com 1.10,2013-04-26 08:58:00,
2013-04-26 02:13:00,48.1,44.0,30.15,SSW,199,0.0,-999.0,87,-99.99,,,0.00,0,weatherlink.com 1.10,2013-04-26 09:13:00,
2013-04-26 02:28:00,47.6,44.0,30.15,SSW,199,0.0,-999.0,87,-99.99,,,0.00,0,weatherlink.com 1.10,2013-04-26 09:28:00,
2013-04-26 02:43:00,47.6,44.0,30.14,SSW,199,0.0,-999.0,87,-99.99,,,0.00,0,weatherlink.com 1.10,2013-04-26 09:43:00,
2013-04-26 02:58:00,47.3,44.0,30.14,SSW,199,0.0,-999.0,88,-99.99,,,0.00,0,weatherlink.com 1.10,2013-04-26 09:58:00,
2013-04-26 03:13:00,47.1,44.0,30.14,SSW,199,0.0,-999.0,88,-99.99,,,0.00,0,weatherlink.com 1.10,2013-04-26 10:13:00,
2013-04-26 03:28:00,46.6,43.0,30.14,SSW,199,0.0,-999.0,88,-99.99,,,0.00,0,weatherlink.com 1.10,2013-04-26 10:28:00,
2013-04-26 03:43:00,46.4,43.0,30.14,SSW,199,0.0,-999.0,88,-99.99,,,0.00,0,weatherlink.com 1.10,2013-04-26 10:43:00,
2013-04-26 03:58:00,46.2,43.0,30.14,SSW,199,0.0,-999.0,89,-99.99,,,0.00,0,weatherlink.com 1.10,2013-04-26 10:58:00,
2013-04-26 04:13:00,46.0,43.0,30.14,SSW,199,0.0,-999.0,88,-99.99,,,0.00,0,weatherlink.com 1.10,2013-04-26 11:13:00,
2013-04-26 04:28:00,45.5,43.0,30.14,SSW,199,0.0,-999.0,89,-99.99,,,0.00,0,weatherlink.com 1.10,2013-04-26 11:28:00,
2013-04-26 04:43:00,45.5,43.0,30.14,SSW,199,0.0,-999.0,90,-99.99,,,0.00,0,weatherlink.com 1.10,2013-04-26 11:43:00,
2013-04-26 04:58:00,45.4,43.0,30.14,SSW,199,0.0,-999.0,90,-99.99,,,0.00,0,weatherlink.com 1.10,2013-04-26 11:58:00,
2013-04-26 05:13:00,44.8,42.0,30.14,SSW,199,0.0,-999.0,90,-99.99,,,0.00,0,weatherlink.com 1.10,2013-04-26 12:13:00,
2013-04-26 05:28:00,44.6,42.0,30.14,SSW,199,0.0,-999.0,90,-99.99,,,0.00,0,weatherlink.com 1.10,2013-04-26 12:28:00,
2013-04-26 05:43:00,44.6,42.0,30.14,SSW,199,0.0,-999.0,90,-99.99,,,0.00,0,weatherlink.com 1.10,2013-04-26 12:43:00,
2013-04-26 05:58:00,44.3,42.0,30.14,SSW,199,0.0,-999.0,90,-99.99,,,0.00,0,weatherlink.com 1.10,2013-04-26 12:58:00,
2013-04-26 06:13:00,44.3,42.0,30.14,SSW,199,0.0,-999.0,91,-99.99,,,0.00,7,weatherlink.com 1.10,2013-04-26 13:13:00,
2013-04-26 06:28:00,44.3,42.0,30.15,SSW,199,0.0,-999.0,91,-99.99,,,0.00,19,weatherlink.com 1.10,2013-04-26 13:28:00,
2013-04-26 06:43:00,44.5,42.0,30.15,SSW,199,0.0,-999.0,91,-99.99,,,0.00,49,weatherlink.com 1.10,2013-04-26 13:43:00,
2013-04-26 06:58:00,45.0,43.0,30.16,SSW,199,0.0,-999.0,91,-99.99,,,0.00,90,weatherlink.com 1.10,2013-04-26 13:58:00,
2013-04-26 07:13:00,46.1,44.0,30.16,SSW,199,0.0,-999.0,92,-99.99,,,0.00,141,weatherlink.com 1.10,2013-04-26 14:13:00,
2013-04-26 07:28:00,47.6,45.0,30.17,SSW,199,0.0,-999.0,92,-99.99,,,0.00,204,weatherlink.com 1.10,2013-04-26 14:28:00,
2013-04-26 07:43:00,49.5,47.0,30.17,SSW,199,0.0,-999.0,92,-99.99,,,0.00,272,weatherlink.com 1.10,2013-04-26 14:43:00,
2013-04-26 07:58:00,51.7,49.0,30.17,SSW,199,0.0,-999.0,91,-99.99,,,0.00,327,weatherlink.com 1.10,2013-04-26 14:58:00,
2013-04-26 08:14:00,54.1,51.0,30.16,SSW,199,0.0,-999.0,89,-99.99,,,0.00,381,weatherlink.com 1.10,2013-04-26 15:14:00,
2013-04-26 08:29:00,56.9,53.0,30.16,SW,230,0.0,-999.0,86,-99.99,,,0.00,436,weatherlink.com 1.10,2013-04-26 15:29:00,
2013-04-26 08:44:00,59.8,54.0,30.16,SW,230,0.0,-999.0,81,-99.99,,,0.00,490,weatherlink.com 1.10,2013-04-26 15:44:00,
2013-04-26 08:59:00,62.0,54.0,30.16,South,174,0.0,-999.0,74,-99.99,,,0.00,545,weatherlink.com 1.10,2013-04-26 15:59:00,
2013-04-26 09:14:00,64.2,53.0,30.16,SSW,193,0.0,-999.0,68,-99.99,,,0.00,594,weatherlink.com 1.10,2013-04-26 16:14:00,
2013-04-26 09:29:00,66.2,52.0,30.16,SSW,204,2.0,-999.0,61,-99.99,,,0.00,640,weatherlink.com 1.10,2013-04-26 16:29:00,
2013-04-26 09:44:00,67.7,52.0,30.16,SSW,198,0.0,-999.0,58,-99.99,,,0.00,682,weatherlink.com 1.10,2013-04-26 16:44:00,
2013-04-26 09:59:00,69.4,52.0,30.17,SW,221,2.0,-999.0,54,-99.99,,,0.00,726,weatherlink.com 1.10,2013-04-26 16:59:00,
2013-04-26 10:14:00,70.3,53.0,30.16,SW,224,1.0,-999.0,54,-99.99,,,0.00,763,weatherlink.com 1.10,2013-04-26 17:14:00,
2013-04-26 10:29:00,71.4,53.0,30.16,SW,229,3.0,-999.0,52,-99.99,,,0.00,793,weatherlink.com 1.10,2013-04-26 17:29:00,
2013-04-26 10:44:00,71.9,53.0,30.16,WSW,243,3.0,-999.0,51,-99.99,,,0.00,826,weatherlink.com 1.10,2013-04-26 17:44:00,
2013-04-26 10:59:00,73.2,53.0,30.15,West,266,0.0,-999.0,49,-99.99,,,0.00,860,weatherlink.com 1.10,2013-04-26 17:59:00,
2013-04-26 11:14:00,74.3,52.0,30.15,WSW,255,4.0,-999.0,46,-99.99,,,0.00,882,weatherlink.com 1.10,2013-04-26 18:14:00,
2013-04-26 11:29:00,74.7,53.0,30.15,WNW,285,2.0,-999.0,47,-99.99,,,0.00,900,weatherlink.com 1.10,2013-04-26 18:29:00,
2013-04-26 11:44:00,75.1,53.0,30.15,SSW,192,4.0,-999.0,46,-99.99,,,0.00,918,weatherlink.com 1.10,2013-04-26 18:44:00,
2013-04-26 12:00:00,76.5,53.0,30.14,WSW,242,0.0,-999.0,44,-99.99,,,0.00,932,weatherlink.com 1.10,2013-04-26 19:00:00,
2013-04-26 12:15:00,76.8,54.0,30.15,WNW,294,0.0,-999.0,46,-99.99,,,0.00,940,weatherlink.com 1.10,2013-04-26 19:15:00,
2013-04-26 12:30:00,76.4,55.0,30.14,WSW,240,3.0,-999.0,48,-99.99,,,0.00,944,weatherlink.com 1.10,2013-04-26 19:30:00,
2013-04-26 12:45:00,75.7,54.0,30.14,WSW,250,2.0,-999.0,47,-99.99,,,0.00,944,weatherlink.com 1.10,2013-04-26 19:45:00,
2013-04-26 13:00:00,76.1,54.0,30.14,West,266,3.0,-999.0,47,-99.99,,,0.00,944,weatherlink.com 1.10,2013-04-26 20:00:00,
2013-04-26 13:15:00,75.7,53.0,30.14,NW,313,0.0,-999.0,46,-99.99,,,0.00,935,weatherlink.com 1.10,2013-04-26 20:15:00,
2013-04-26 13:30:00,76.9,54.0,30.14,WSW,238,2.0,-999.0,45,-99.99,,,0.00,928,weatherlink.com 1.10,2013-04-26 20:30:00,
2013-04-26 13:45:00,77.7,53.0,30.13,WNW,297,2.0,-999.0,42,-99.99,,,0.00,912,weatherlink.com 1.10,2013-04-26 20:45:00,
2013-04-26 14:00:00,78.6,52.0,30.13,WNW,295,0.0,-999.0,40,-99.99,,,0.00,896,weatherlink.com 1.10,2013-04-26 21:00:00,
2013-04-26 14:15:00,78.1,52.0,30.13,WSW,250,4.0,-999.0,40,-99.99,,,0.00,877,weatherlink.com 1.10,2013-04-26 21:15:00,
2013-04-26 14:30:00,76.9,51.0,30.13,NW,313,2.0,-999.0,41,-99.99,,,0.00,847,weatherlink.com 1.10,2013-04-26 21:30:00,
2013-04-26 14:45:00,77.6,52.0,30.12,SW,236,5.0,-999.0,41,-99.99,,,0.00,824,weatherlink.com 1.10,2013-04-26 21:45:00,
2013-04-26 15:00:00,76.2,52.0,30.12,NW,313,2.0,-999.0,43,-99.99,,,0.00,789,weatherlink.com 1.10,2013-04-26 22:00:00,
2013-04-26 15:15:00,75.9,52.0,30.12,West,261,5.0,-999.0,44,-99.99,,,0.00,751,weatherlink.com 1.10,2013-04-26 22:15:00,
2013-04-26 15:30:00,76.1,53.0,30.12,WSW,248,3.0,-999.0,45,-99.99,,,0.00,714,weatherlink.com 1.10,2013-04-26 22:30:00,
2013-04-26 15:45:00,76.2,53.0,30.11,SSW,205,3.0,-999.0,44,-99.99,,,0.00,670,weatherlink.com 1.10,2013-04-26 22:45:00,
2013-04-26 16:00:00,76.3,52.0,30.11,WSW,247,1.0,-999.0,43,-99.99,,,0.00,628,weatherlink.com 1.10,2013-04-26 23:00:00,
2013-04-26 16:15:00,76.2,53.0,30.11,WSW,243,3.0,-999.0,44,-99.99,,,0.00,582,weatherlink.com 1.10,2013-04-26 23:15:00,
2013-04-26 16:30:00,75.6,52.0,30.11,WSW,249,3.0,-999.0,44,-99.99,,,0.00,533,weatherlink.com 1.10,2013-04-26 23:30:00,
2013-04-26 16:45:00,76.0,52.0,30.11,NW,315,3.0,-999.0,44,-99.99,,,0.00,482,weatherlink.com 1.10,2013-04-26 23:45:00,
2013-04-26 17:15:00,75.7,53.0,30.10,West,267,0.0,-999.0,45,-99.99,,,0.00,378,weatherlink.com 1.10,2013-04-27 00:15:00,
2013-04-26 17:30:00,75.2,52.0,30.10,WNW,302,1.0,-999.0,45,-99.99,,,0.00,195,weatherlink.com 1.10,2013-04-27 00:30:00,
2013-04-26 17:45:00,74.4,52.0,30.10,WSW,255,0.0,-999.0,46,-99.99,,,0.00,271,weatherlink.com 1.10,2013-04-27 00:45:00,
2013-04-26 18:00:00,73.6,52.0,30.10,WNW,293,0.0,-999.0,47,-99.99,,,0.00,185,weatherlink.com 1.10,2013-04-27 01:00:00,
2013-04-26 18:15:00,73.0,52.0,30.10,WNW,285,0.0,-999.0,48,-99.99,,,0.00,76,weatherlink.com 1.10,2013-04-27 01:15:00,
2013-04-26 18:30:00,72.0,52.0,30.11,West,260,3.0,-999.0,49,-99.99,,,0.00,40,weatherlink.com 1.10,2013-04-27 01:30:00,
2013-04-26 18:45:00,71.0,51.0,30.11,NW,304,0.0,-999.0,50,-99.99,,,0.00,32,weatherlink.com 1.10,2013-04-27 01:45:00,
2013-04-26 19:00:00,70.3,51.0,30.11,WNW,293,0.0,-999.0,51,-99.99,,,0.00,25,weatherlink.com 1.10,2013-04-27 02:00:00,
2013-04-26 19:15:00,69.2,51.0,30.11,WNW,298,0.0,-999.0,53,-99.99,,,0.00,12,weatherlink.com 1.10,2013-04-27 02:15:00,
2013-04-26 19:30:00,68.3,51.0,30.11,WSW,254,0.0,-999.0,55,-99.99,,,0.00,0,weatherlink.com 1.10,2013-04-27 02:30:00,
2013-04-26 19:45:00,67.7,51.0,30.12,WSW,254,0.0,-999.0,56,-99.99,,,0.00,0,weatherlink.com 1.10,2013-04-27 02:45:00,
2013-04-26 20:00:00,66.9,52.0,30.12,WSW,254,0.0,-999.0,60,-99.99,,,0.00,0,weatherlink.com 1.10,2013-04-27 03:00:00,
2013-04-26 20:15:00,65.8,50.0,30.12,SW,236,0.0,-999.0,58,-99.99,,,0.00,0,weatherlink.com 1.10,2013-04-27 03:15:00,
2013-04-26 20:31:00,64.8,51.0,30.13,SW,236,0.0,-999.0,61,-99.99,,,0.00,0,weatherlink.com 1.10,2013-04-27 03:31:00,
2013-04-26 20:46:00,63.8,51.0,30.14,SW,236,0.0,-999.0,64,-99.99,,,0.00,0,weatherlink.com 1.10,2013-04-27 03:46:00,
2013-04-26 21:00:00,63.0,51.0,30.15,South,188,0.0,-999.0,65,-99.99,,,0.00,0,weatherlink.com 1.10,2013-04-27 04:00:00,
2013-04-26 21:15:00,62.3,51.0,30.15,South,188,0.0,-999.0,67,-99.99,,,0.00,0,weatherlink.com 1.10,2013-04-27 04:15:00,
2013-04-26 21:30:00,61.7,51.0,30.16,South,188,0.0,-999.0,68,-99.99,,,0.00,0,weatherlink.com 1.10,2013-04-27 04:30:00,
2013-04-26 21:45:00,61.1,52.0,30.16,SSE,150,0.0,-999.0,73,-99.99,,,0.00,0,weatherlink.com 1.10,2013-04-27 04:45:00,
2013-04-26 22:00:00,60.5,52.0,30.16,SSE,150,0.0,-999.0,74,-99.99,,,0.00,0,weatherlink.com 1.10,2013-04-27 05:00:00,
2013-04-26 22:15:00,59.8,52.0,30.17,SSE,150,0.0,-999.0,74,-99.99,,,0.00,0,weatherlink.com 1.10,2013-04-27 05:15:00,
2013-04-26 22:30:00,58.2,51.0,30.17,SE,141,0.0,-999.0,77,-99.99,,,0.00,0,weatherlink.com 1.10,2013-04-27 05:30:00,
2013-04-26 22:45:00,57.4,50.0,30.17,SE,141,0.0,-999.0,75,-99.99,,,0.00,0,weatherlink.com 1.10,2013-04-27 05:45:00,
2013-04-26 23:00:00,56.2,48.0,30.17,SE,141,0.0,-999.0,74,-99.99,,,0.00,0,weatherlink.com 1.10,2013-04-27 06:00:00,
2013-04-26 23:15:00,55.3,48.0,30.17,SE,141,0.0,-999.0,76,-99.99,,,0.00,0,weatherlink.com 1.10,2013-04-27 06:15:00,
2013-04-26 23:30:00,54.4,47.0,30.17,SE,141,0.0,-999.0,77,-99.99,,,0.00,0,weatherlink.com 1.10,2013-04-27 06:30:00,
2013-04-26 23:45:00,54.0,47.0,30.17,SE,141,0.0,-999.0,76,-99.99,,,0.00,0,weatherlink.com 1.10,2013-04-27 06:45:00,